Time;durP1;ratioP1;P1;durP2;ratioP2;P2;SDS_P1;SDS_P2;PMS_P1;PMS_P2;Temp;Humidity;BMP_temperature;BMP_pressure;BME280_temperature;BME280_humidity;BME280_pressure;Samples;Min_cycle;Max_cycle;Signal;HPM_P1;HPM_P2
2023/06/23 00:00:36;;;;;;;13.85;12.25;;;;;;;26.67;100.00;98753.59;5114271;28;20212;-78
2023/06/23 00:03:02;;;;;;;12.68;11.38;;;;;;;26.60;100.00;98751.44;5115751;28;20709;-78
2023/06/23 00:05:29;;;;;;;17.45;12.20;;;;;;;26.58;100.00;98750.97;5115449;28;20270;-80
2023/06/23 00:07:57;;;;;;;16.25;12.95;;;;;;;26.51;100.00;98744.44;5114213;28;20656;-79
2023/06/23 00:10:23;;;;;;;14.30;12.30;;;;;;;26.47;100.00;98755.34;5115402;28;20240;-79
2023/06/23 00:12:50;;;;;;;16.15;12.80;;;;;;;26.50;100.00;98756.63;5115592;28;20191;-77
2023/06/23 00:15:17;;;;;;;15.65;12.43;;;;;;;26.46;100.00;98769.41;5112712;28;20207;-78
2023/06/23 00:17:45;;;;;;;13.40;12.00;;;;;;;26.50;100.00;98765.63;5103774;28;20197;-78
2023/06/23 00:20:13;;;;;;;13.57;12.18;;;;;;;26.41;100.00;98767.69;5102377;28;20207;-78
2023/06/23 00:22:42;;;;;;;15.05;12.75;;;;;;;26.43;100.00;98770.09;5106036;28;20227;-78
2023/06/23 00:25:09;;;;;;;16.63;12.50;;;;;;;26.43;100.00;98773.66;5106150;28;20195;-78
2023/06/23 00:27:40;;;;;;;13.57;12.20;;;;;;;26.39;100.00;98789.22;5090406;28;20196;-77
2023/06/23 00:30:11;;;;;;;12.93;11.70;;;;;;;26.37;100.00;98801.69;5083937;28;20327;-78
2023/06/23 00:32:43;;;;;;;13.45;11.98;;;;;;;26.37;100.00;98826.41;5094983;28;20205;-77
2023/06/23 00:35:10;;;;;;;17.85;12.18;;;;;;;26.34;100.00;98847.13;5096007;28;20227;-78
2023/06/23 00:37:37;;;;;;;14.13;12.40;;;;;;;26.29;100.00;98850.09;5113247;28;20242;-76
2023/06/23 00:40:08;;;;;;;16.95;13.15;;;;;;;26.35;100.00;98840.50;5105208;28;20253;-77
2023/06/23 00:42:44;;;;;;;13.07;11.75;;;;;;;26.37;100.00;98848.38;5095003;28;20714;-78
2023/06/23 00:45:11;;;;;;;15.13;12.45;;;;;;;26.43;100.00;98841.50;5105039;28;20286;-79
2023/06/23 00:47:38;;;;;;;16.50;12.35;;;;;;;26.41;100.00;98839.09;5115271;28;20233;-79
2023/06/23 00:50:05;;;;;;;14.32;12.30;;;;;;;26.44;100.00;98830.19;5096433;28;20226;-78
2023/06/23 00:52:32;;;;;;;13.40;12.10;;;;;;;26.42;100.00;98835.22;5114469;28;20666;-78
2023/06/23 00:55:03;;;;;;;13.63;12.18;;;;;;;26.44;100.00;98829.38;5096399;28;20203;-78
2023/06/23 00:57:29;;;;;;;14.52;12.90;;;;;;;26.42;100.00;98837.97;5114674;28;20200;-78
2023/06/23 00:59:56;;;;;;;13.40;11.90;;;;;;;26.38;100.00;98837.03;5114390;28;20215;-79
2023/06/23 01:02:23;;;;;;;17.95;12.60;;;;;;;26.43;100.00;98858.00;5096235;28;20207;-79
2023/06/23 01:04:49;;;;;;;14.57;12.80;;;;;;;26.38;100.00;98874.69;5115020;28;20245;-78
2023/06/23 01:07:26;;;;;;;14.07;12.68;;;;;;;26.35;100.00;98876.19;5112257;28;20192;-77
2023/06/23 01:10:19;;;;;;;15.48;12.73;;;;;;;26.31;100.00;98908.22;5078023;28;20216;-78
2023/06/23 01:12:56;;;;;;;14.25;12.55;;;;;;;26.33;100.00;98927.09;5096001;28;20211;-78
2023/06/23 01:15:32;;;;;;;14.75;12.35;;;;;;;26.27;100.00;98923.75;5109159;28;20199;-79
2023/06/23 01:18:40;;;;;;;14.15;12.23;;;;;;;26.32;100.00;98934.50;5093165;28;20243;-77
2023/06/23 01:21:10;;;;;;;14.98;12.70;;;;;;;26.16;100.00;98922.56;5047977;28;20195;-78
2023/06/23 01:24:11;;;;;;;13.93;12.60;;;;;;;26.05;100.00;98937.84;5114214;28;20245;-78
2023/06/23 01:27:00;;;;;;;15.88;13.50;;;;;;;26.06;100.00;98951.25;5092434;28;20209;-78
2023/06/23 01:29:29;;;;;;;14.77;13.07;;;;;;;26.02;100.00;98946.75;5090045;28;20640;-77
2023/06/23 01:32:05;;;;;;;16.20;12.98;;;;;;;26.01;100.00;98959.69;5079250;28;20191;-77
2023/06/23 01:34:38;;;;;;;15.43;13.23;;;;;;;26.06;100.00;98969.66;5077377;28;20207;-78
2023/06/23 01:37:08;;;;;;;14.55;11.60;;;;;;;26.27;100.00;98970.41;5079332;28;20195;-77
2023/06/23 01:39:38;;;;;;;14.45;10.63;;;;;;;26.37;100.00;98980.19;5078515;28;20200;-78
2023/06/23 01:42:10;;;;;;;15.00;10.20;;;;;;;26.55;100.00;98979.66;5089495;28;20199;-78
2023/06/23 01:44:39;;;;;;;12.60;8.57;;;;;;;26.70;100.00;98984.50;5104675;28;20223;-76
2023/06/23 01:47:11;;;;;;;11.95;6.85;;;;;;;26.91;100.00;98978.94;5078809;28;20200;-75
2023/06/23 01:49:38;;;;;;;11.68;6.47;;;;;;;26.90;100.00;98980.09;5087202;28;20298;-74
2023/06/23 01:52:09;;;;;;;10.40;5.93;;;;;;;26.95;100.00;98979.06;5095621;28;20695;-76
2023/06/23 01:54:39;;;;;;;11.95;5.63;;;;;;;27.18;100.00;98980.19;5093165;28;20541;-79
2023/06/23 01:57:08;;;;;;;13.10;5.05;;;;;;;27.19;100.00;98970.00;5096004;28;20674;-75
2023/06/23 01:59:37;;;;;;;8.05;5.18;;;;;;;27.13;100.00;98985.94;5094848;28;20256;-75
2023/06/23 02:02:05;;;;;;;10.57;4.93;;;;;;;27.27;100.00;98991.06;5073362;28;20700;-75
2023/06/23 02:04:32;;;;;;;13.35;4.70;;;;;;;27.19;100.00;99008.50;5094101;28;20250;-78
2023/06/23 02:07:00;;;;;;;11.77;4.90;;;;;;;27.23;100.00;99009.41;5099236;28;20180;-78
2023/06/23 02:09:28;;;;;;;9.85;4.65;;;;;;;27.45;100.00;99009.72;5094754;28;20211;-75
2023/06/23 02:11:57;;;;;;;12.43;4.88;;;;;;;27.29;100.00;99008.03;5092577;28;20253;-77
2023/06/23 02:14:26;;;;;;;13.52;4.47;;;;;;;27.26;100.00;99025.22;5090282;28;20203;-77
2023/06/23 02:16:53;;;;;;;8.48;4.70;;;;;;;27.17;100.00;99012.38;5108366;28;20245;-77
2023/06/23 02:19:21;;;;;;;10.82;4.53;;;;;;;27.15;100.00;99014.69;5072188;28;20199;-78
2023/06/23 02:21:48;;;;;;;11.98;4.30;;;;;;;26.99;100.00;99022.00;5109945;28;20195;-78
2023/06/23 02:24:17;;;;;;;13.10;5.55;;;;;;;27.03;100.00;99016.63;5095152;28;20188;-78
2023/06/23 02:26:47;;;;;;;10.82;4.78;;;;;;;26.83;100.00;99006.50;5108266;28;20552;-78
2023/06/23 02:29:14;;;;;;;13.02;4.57;;;;;;;26.82;100.00;99027.69;5109161;28;20212;-78
2023/06/23 02:31:41;;;;;;;10.90;4.22;;;;;;;26.76;100.00;99030.97;5094787;28;20221;-78
2023/06/23 02:34:08;;;;;;;10.65;4.20;;;;;;;26.74;100.00;99034.06;5113108;28;20191;-77
2023/06/23 02:36:44;;;;;;;14.85;4.43;;;;;;;26.80;100.00;99040.94;5112335;28;20230;-78
2023/06/23 02:39:18;;;;;;;10.02;4.38;;;;;;;26.60;100.00;99037.13;5082271;28;20219;-77
2023/06/23 02:41:51;;;;;;;9.82;4.82;;;;;;;26.57;100.00;99046.06;5057530;28;20603;-76
2023/06/23 02:44:29;;;;;;;10.48;4.68;;;;;;;26.53;100.00;99047.88;5092485;28;20283;-78
2023/06/23 02:46:57;;;;;;;11.55;4.75;;;;;;;26.45;100.00;99037.78;5112882;28;20657;-79
2023/06/23 02:49:27;;;;;;;13.50;4.53;;;;;;;26.38;100.00;99055.94;5112248;28;20219;-77
2023/06/23 02:51:58;;;;;;;8.55;4.30;;;;;;;26.21;100.00;99052.22;5088918;28;20199;-75
2023/06/23 02:54:26;;;;;;;8.73;4.53;;;;;;;26.05;100.00;99058.63;5077488;28;20202;-77
2023/06/23 02:56:55;;;;;;;10.05;4.35;;;;;;;26.01;100.00;99061.22;5094288;28;20651;-77
2023/06/23 02:59:23;;;;;;;7.38;4.75;;;;;;;26.16;100.00;99060.63;5094533;28;20222;-76
2023/06/23 03:01:52;;;;;;;8.80;4.65;;;;;;;26.11;100.00;99069.06;5112365;28;20280;-76
2023/06/23 03:04:19;;;;;;;12.10;4.55;;;;;;;25.98;100.00;99072.09;5090483;28;20254;-76
2023/06/23 03:06:46;;;;;;;12.55;4.82;;;;;;;25.82;100.00;99072.66;5106988;28;20192;-76
2023/06/23 03:09:13;;;;;;;8.20;3.80;;;;;;;25.77;100.00;99083.03;5110829;28;20397;-76
2023/06/23 03:11:40;;;;;;;7.07;3.63;;;;;;;25.94;100.00;99087.63;5111600;28;20188;-77
2023/06/23 03:14:07;;;;;;;7.80;4.25;;;;;;;25.89;100.00;99080.38;5103849;28;20207;-76
2023/06/23 03:16:49;;;;;;;6.07;4.25;;;;;;;25.77;100.00;99075.59;5106142;28;20603;-78
2023/06/23 03:19:33;;;;;;;5.90;4.22;;;;;;;25.76;100.00;99076.72;5103150;28;20202;-76
2023/06/23 03:22:07;;;;;;;6.03;4.05;;;;;;;25.74;100.00;99076.28;5083458;28;20778;-78
2023/06/23 03:24:38;;;;;;;9.80;4.05;;;;;;;25.70;100.00;99080.84;5091121;28;20278;-75
2023/06/23 03:27:08;;;;;;;7.20;4.10;;;;;;;25.81;100.00;99081.22;5086962;28;20674;-77
2023/06/23 03:29:39;;;;;;;7.38;3.97;;;;;;;25.52;100.00;99092.19;5075677;28;20215;-77
2023/06/23 03:32:07;;;;;;;8.30;4.35;;;;;;;25.58;100.00;99082.66;5094142;28;20274;-78
2023/06/23 03:34:48;;;;;;;8.57;4.05;;;;;;;25.56;100.00;99082.19;5104995;28;20248;-79
2023/06/23 03:37:16;;;;;;;10.75;4.30;;;;;;;25.46;100.00;99086.09;5087197;28;20191;-76
2023/06/23 03:39:45;;;;;;;8.07;4.60;;;;;;;25.41;100.00;99092.56;5093900;28;20199;-75
2023/06/23 03:42:12;;;;;;;7.28;3.83;;;;;;;25.44;100.00;99093.84;5094074;28;20196;-76
2023/06/23 03:44:41;;;;;;;8.70;4.20;;;;;;;25.39;100.00;99092.09;5110466;28;20718;-76
2023/06/23 03:47:17;;;;;;;5.80;3.80;;;;;;;25.39;100.00;99102.25;5093991;28;20218;-76
2023/06/23 03:50:04;;;;;;;8.43;4.07;;;;;;;25.27;100.00;99099.41;5093611;28;20253;-76
2023/06/23 03:52:33;;;;;;;9.15;3.80;;;;;;;25.40;100.00;99092.88;5093856;28;20191;-75
2023/06/23 03:55:01;;;;;;;7.18;3.85;;;;;;;25.36;100.00;99091.94;5092410;28;20195;-75
2023/06/23 03:57:31;;;;;;;7.28;3.83;;;;;;;25.35;100.00;99093.06;5111780;28;20199;-77
2023/06/23 03:59:58;;;;;;;8.00;3.88;;;;;;;25.31;100.00;99090.19;5090891;28;20294;-75
2023/06/23 04:02:26;;;;;;;7.90;4.05;;;;;;;25.24;100.00;99098.09;5085019;28;20242;-76
2023/06/23 04:04:54;;;;;;;5.80;3.88;;;;;;;25.25;100.00;99091.50;5084453;28;20196;-76
2023/06/23 04:07:22;;;;;;;5.78;3.67;;;;;;;25.40;100.00;99093.69;5087307;28;20252;-76
2023/06/23 04:09:50;;;;;;;6.03;3.58;;;;;;;25.42;100.00;99091.44;5108987;28;20353;-77
2023/06/23 04:12:17;;;;;;;9.32;3.80;;;;;;;25.46;100.00;99093.50;5105657;28;20245;-78
2023/06/23 04:14:47;;;;;;;6.97;3.25;;;;;;;25.52;100.00;99090.28;5079437;28;20183;-78
2023/06/23 04:17:14;;;;;;;6.00;3.15;;;;;;;25.51;100.00;99104.31;5114649;28;20195;-77
2023/06/23 04:19:42;;;;;;;6.65;3.08;;;;;;;25.65;100.00;99102.16;5109275;28;20196;-78
2023/06/23 04:22:09;;;;;;;5.15;2.88;;;;;;;25.65;100.00;99088.44;5097166;28;20251;-76
2023/06/23 04:24:37;;;;;;;5.65;3.38;;;;;;;25.81;100.00;99092.19;5097173;28;20607;-75
2023/06/23 04:27:05;;;;;;;9.27;3.60;;;;;;;25.84;100.00;99084.13;5096776;28;20241;-76
2023/06/23 04:29:34;;;;;;;8.68;3.63;;;;;;;25.98;100.00;99080.31;5115041;28;20211;-75
2023/06/23 04:32:01;;;;;;;7.60;3.50;;;;;;;25.93;100.00;99081.31;5097002;28;20187;-77
2023/06/23 04:34:28;;;;;;;7.72;3.45;;;;;;;25.84;100.00;99083.31;5105830;28;20188;-75
2023/06/23 04:37:06;;;;;;;5.63;3.30;;;;;;;25.62;100.00;99089.91;5113355;28;20195;-77
2023/06/23 04:39:46;;;;;;;7.78;3.35;;;;;;;25.68;100.00;99082.28;5097073;28;20282;-76
2023/06/23 04:42:14;;;;;;;6.90;2.85;;;;;;;25.72;100.00;99092.25;5095532;28;20226;-75
2023/06/23 04:44:50;;;;;;;8.35;3.63;;;;;;;25.65;100.00;99096.66;5095196;28;20183;-76
2023/06/23 04:47:20;;;;;;;5.75;2.97;;;;;;;25.85;100.00;99099.44;5096824;28;20197;-75
2023/06/23 04:49:53;;;;;;;9.27;3.65;;;;;;;25.94;100.00;99113.13;5096646;28;20211;-77
2023/06/23 04:52:21;;;;;;;7.88;3.08;;;;;;;26.19;100.00;99114.06;5096947;28;20199;-78
2023/06/23 04:54:48;;;;;;;6.07;2.88;;;;;;;26.25;100.00;99113.56;5112491;28;20184;-78
2023/06/23 04:57:21;;;;;;;5.35;3.05;;;;;;;26.25;100.00;99113.56;5094734;28;20199;-78
2023/06/23 04:59:52;;;;;;;6.10;3.22;;;;;;;26.53;100.00;99102.81;5088073;28;20204;-78
2023/06/23 05:02:20;;;;;;;5.75;2.83;;;;;;;26.62;100.00;99114.53;5114367;28;20195;-78
2023/06/23 05:04:49;;;;;;;7.00;3.10;;;;;;;26.49;100.00;99107.38;5093942;28;20727;-78
2023/06/23 05:07:17;;;;;;;4.82;3.05;;;;;;;26.47;100.00;99122.56;5088499;28;20234;-78
2023/06/23 05:09:48;;;;;;;8.00;3.05;;;;;;;26.51;100.00;99120.75;5111747;28;20214;-78
2023/06/23 05:12:16;;;;;;;7.95;3.35;;;;;;;26.48;100.00;99126.94;5104357;28;20219;-78
2023/06/23 05:14:44;;;;;;;8.27;3.05;;;;;;;26.65;100.00;99121.28;5099538;28;20254;-78
2023/06/23 05:17:13;;;;;;;6.78;3.20;;;;;;;26.69;100.00;99130.44;5088035;28;20288;-79
2023/06/23 05:19:45;;;;;;;9.65;3.50;;;;;;;26.87;100.00;99134.69;5108149;28;20184;-78
2023/06/23 05:22:15;;;;;;;7.93;3.22;;;;;;;27.10;100.00;99127.66;5091986;28;20204;-79
2023/06/23 05:24:46;;;;;;;9.00;3.00;;;;;;;27.12;100.00;99135.53;5112251;28;20607;-79
2023/06/23 05:27:13;;;;;;;5.68;3.13;;;;;;;27.40;100.00;99130.19;5095766;28;20203;-79
2023/06/23 05:29:42;;;;;;;8.57;3.42;;;;;;;27.42;100.00;99139.72;5088283;28;20238;-77
2023/06/23 05:32:10;;;;;;;8.43;3.17;;;;;;;27.10;100.00;99137.84;5095947;28;20211;-78
2023/06/23 05:34:37;;;;;;;6.95;3.00;;;;;;;27.45;100.00;99144.53;5095792;28;20183;-78
2023/06/23 05:37:05;;;;;;;6.88;3.38;;;;;;;27.79;100.00;99140.56;5106721;28;20192;-78
2023/06/23 05:39:33;;;;;;;6.22;3.08;;;;;;;27.54;100.00;99145.25;5113781;28;20233;-77
2023/06/23 05:42:00;;;;;;;5.45;2.92;;;;;;;27.54;100.00;99153.50;5095683;28;20207;-78
2023/06/23 05:44:27;;;;;;;7.88;3.35;;;;;;;27.71;100.00;99157.19;5107771;28;20654;-78
2023/06/23 05:46:57;;;;;;;6.25;3.13;;;;;;;27.67;100.00;99148.03;5113660;28;20188;-78
2023/06/23 05:49:25;;;;;;;6.32;3.10;;;;;;;27.89;100.00;99151.09;5095786;28;20267;-78
2023/06/23 05:51:55;;;;;;;5.65;3.20;;;;;;;28.00;100.00;99146.72;5112085;28;20716;-78
2023/06/23 05:54:24;;;;;;;5.32;3.05;;;;;;;27.94;100.00;99155.56;5109117;28;20195;-77
2023/06/23 05:56:53;;;;;;;6.05;3.28;;;;;;;28.08;100.00;99147.75;5090021;28;20203;-79
2023/06/23 05:59:24;;;;;;;6.30;3.10;;;;;;;27.92;100.00;99146.84;5094957;28;20291;-77
2023/06/23 06:01:57;;;;;;;8.55;3.38;;;;;;;27.62;100.00;99146.31;5093657;28;20222;-78
2023/06/23 06:04:28;;;;;;;6.30;3.28;;;;;;;27.64;100.00;99126.69;5110478;28;20247;-77
2023/06/23 06:06:56;;;;;;;7.18;3.33;;;;;;;27.67;100.00;99126.00;5071988;28;20609;-78
2023/06/23 06:09:24;;;;;;;9.23;3.50;;;;;;;27.71;100.00;99141.47;5081080;28;20196;-78
2023/06/23 06:11:51;;;;;;;7.50;3.10;;;;;;;28.06;100.00;99136.28;5075030;28;20717;-78
2023/06/23 06:14:18;;;;;;;8.02;3.40;;;;;;;28.35;100.00;99137.97;5091609;28;20192;-78
2023/06/23 06:16:46;;;;;;;9.85;3.40;;;;;;;28.51;100.00;99149.06;5093026;28;20208;-79
2023/06/23 06:19:14;;;;;;;6.78;3.40;;;;;;;28.44;100.00;99136.69;5088287;28;20209;-79
2023/06/23 06:21:43;;;;;;;5.47;3.20;;;;;;;28.50;100.00;99140.00;5070333;28;20252;-78
2023/06/23 06:24:11;;;;;;;7.10;3.20;;;;;;;28.50;100.00;99141.94;5087309;28;20188;-79
2023/06/23 06:26:38;;;;;;;5.90;3.08;;;;;;;28.55;100.00;99145.25;5074490;28;20192;-79
2023/06/23 06:29:06;;;;;;;7.53;3.20;;;;;;;28.55;100.00;99137.00;5094333;28;20252;-79
2023/06/23 06:31:36;;;;;;;5.28;3.03;;;;;;;28.42;100.00;99143.66;5093564;28;20223;-78
2023/06/23 06:34:05;;;;;;;8.35;3.30;;;;;;;28.20;100.00;99142.25;5107219;28;20610;-78
2023/06/23 06:36:32;;;;;;;6.07;3.05;;;;;;;28.41;100.00;99158.63;5107342;28;20242;-78
2023/06/23 06:38:59;;;;;;;5.53;3.03;;;;;;;28.32;100.00;99149.69;5075211;28;20200;-79
2023/06/23 06:41:26;;;;;;;5.95;3.40;;;;;;;28.27;100.00;99150.75;5094309;28;20611;-78
2023/06/23 06:43:53;;;;;;;5.10;2.90;;;;;;;28.51;100.00;99146.31;5096416;28;20188;-79
2023/06/23 06:46:21;;;;;;;6.55;2.97;;;;;;;28.46;100.00;99152.88;5081593;28;20195;-78
2023/06/23 06:48:49;;;;;;;6.05;3.10;;;;;;;28.16;100.00;99149.59;5078544;28;20275;-78
2023/06/23 06:51:19;;;;;;;7.10;3.25;;;;;;;28.36;100.00;99156.09;5075657;28;20567;-78
2023/06/23 06:53:46;;;;;;;7.88;2.92;;;;;;;28.24;100.00;99145.91;5087181;28;20723;-78
2023/06/23 06:56:13;;;;;;;5.57;3.03;;;;;;;28.31;100.00;99156.34;5095674;28;20211;-79
2023/06/23 06:58:40;;;;;;;4.78;3.00;;;;;;;28.47;100.00;99162.72;5079799;28;20199;-78
2023/06/23 07:01:07;;;;;;;7.10;3.10;;;;;;;28.35;99.77;99157.25;5072108;28;20302;-77
2023/06/23 07:03:35;;;;;;;5.45;2.80;;;;;;;28.25;100.00;99157.72;5088886;28;20565;-79
2023/06/23 07:06:02;;;;;;;3.85;2.78;;;;;;;28.11;98.78;99157.28;5080887;28;20219;-78
2023/06/23 07:08:28;;;;;;;4.38;2.58;;;;;;;27.95;98.79;99154.41;5100435;28;20203;-78
2023/06/23 07:10:55;;;;;;;4.32;2.85;;;;;;;28.15;97.53;99167.25;5097029;28;20265;-79
2023/06/23 07:13:22;;;;;;;5.60;2.70;;;;;;;28.14;97.52;99170.34;5087230;28;20623;-78
2023/06/23 07:15:49;;;;;;;5.95;2.80;;;;;;;27.84;97.37;99167.06;5092993;28;20604;-78
2023/06/23 07:18:15;;;;;;;5.30;2.53;;;;;;;28.12;96.12;99172.66;5090315;28;20691;-78
2023/06/23 07:20:42;;;;;;;6.38;2.78;;;;;;;28.27;97.91;99181.03;5073769;28;20247;-78
2023/06/23 07:23:09;;;;;;;6.53;2.40;;;;;;;28.29;96.24;99183.41;5089610;28;20189;-77
2023/06/23 07:25:36;;;;;;;4.55;2.40;;;;;;;28.39;97.28;99197.53;5098259;28;20662;-78
2023/06/23 07:28:02;;;;;;;5.05;2.80;;;;;;;28.21;93.79;99179.66;5094263;28;20215;-77
2023/06/23 07:30:29;;;;;;;5.38;2.35;;;;;;;28.30;95.83;99185.03;5093202;28;20201;-78
2023/06/23 07:32:56;;;;;;;4.60;2.17;;;;;;;28.36;93.52;99183.66;5092231;28;20184;-79
2023/06/23 07:35:23;;;;;;;6.05;2.28;;;;;;;28.18;92.98;99190.56;5079091;28;20189;-78
2023/06/23 07:37:50;;;;;;;4.10;2.40;;;;;;;28.27;94.20;99188.50;5101189;28;20200;-77
2023/06/23 07:40:16;;;;;;;3.97;2.30;;;;;;;28.36;93.57;99194.69;5094148;28;20196;-79
2023/06/23 07:42:43;;;;;;;5.50;2.22;;;;;;;28.42;93.40;99196.81;5092965;28;20188;-78
2023/06/23 07:45:10;;;;;;;3.85;2.25;;;;;;;28.26;91.85;99184.94;5099026;28;20198;-78
2023/06/23 07:47:36;;;;;;;3.05;2.05;;;;;;;28.52;92.51;99203.00;5096087;28;20188;-77
2023/06/23 07:50:04;;;;;;;4.63;2.25;;;;;;;28.63;92.46;99198.63;5103649;28;20199;-78
2023/06/23 07:52:30;;;;;;;4.70;2.03;;;;;;;28.51;89.56;99204.16;5115390;28;20723;-78
2023/06/23 07:54:57;;;;;;;6.32;2.30;;;;;;;28.49;90.52;99198.19;5115457;28;20196;-78
2023/06/23 07:57:25;;;;;;;3.95;2.28;;;;;;;28.49;88.45;99206.47;5115623;28;20187;-78
2023/06/23 07:59:51;;;;;;;6.57;2.15;;;;;;;28.52;87.10;99206.56;5112501;28;20224;-77
2023/06/23 08:02:18;;;;;;;4.88;2.10;;;;;;;28.37;87.24;99201.75;5115284;28;20715;-78
2023/06/23 08:04:45;;;;;;;5.53;2.13;;;;;;;28.62;88.22;99210.78;5113546;28;20223;-77
2023/06/23 08:07:12;;;;;;;4.80;1.98;;;;;;;28.48;85.25;99213.91;5108593;28;20207;-78
2023/06/23 08:09:39;;;;;;;6.35;2.10;;;;;;;28.49;87.38;99221.03;5112429;28;20190;-77
2023/06/23 08:12:06;;;;;;;4.97;2.10;;;;;;;28.28;85.84;99210.16;5114737;28;20220;-78
2023/06/23 08:14:33;;;;;;;3.17;1.77;;;;;;;28.27;85.92;99216.84;5115160;28;20188;-77
2023/06/23 08:17:00;;;;;;;3.58;1.77;;;;;;;28.54;86.31;99220.00;5111212;28;20646;-77
2023/06/23 08:19:29;;;;;;;1.92;1.38;;;;;;;28.41;85.70;99217.28;5109920;28;20188;-79
2023/06/23 08:21:56;;;;;;;4.60;1.70;;;;;;;28.70;86.22;99210.63;5110906;28;20192;-78
2023/06/23 08:24:23;;;;;;;2.17;1.42;;;;;;;28.53;85.36;99226.66;5110206;28;20196;-78
2023/06/23 08:26:49;;;;;;;6.38;1.65;;;;;;;28.74;83.04;99205.28;5115234;28;20188;-78
2023/06/23 08:29:16;;;;;;;6.07;1.67;;;;;;;28.59;83.41;99208.72;5115453;28;20188;-78
2023/06/23 08:31:43;;;;;;;5.32;2.25;;;;;;;28.78;82.46;99220.78;5114821;28;20223;-78
2023/06/23 08:34:10;;;;;;;3.22;1.52;;;;;;;29.19;82.94;99221.50;5115226;28;20211;-78
2023/06/23 08:36:36;;;;;;;3.38;1.73;;;;;;;29.20;81.48;99231.41;5115515;28;20203;-77
2023/06/23 08:39:03;;;;;;;2.72;1.63;;;;;;;29.37;81.54;99244.88;5115367;28;20191;-78
2023/06/23 08:41:32;;;;;;;2.53;1.70;;;;;;;29.49;80.55;99225.50;5108452;28;20635;-78
2023/06/23 08:44:01;;;;;;;2.63;1.63;;;;;;;29.25;80.06;99229.19;5109554;28;20193;-78
2023/06/23 08:46:31;;;;;;;5.03;2.08;;;;;;;28.88;79.11;99236.78;5108603;28;20245;-78
2023/06/23 08:49:15;;;;;;;3.42;1.55;;;;;;;29.18;79.27;99242.78;5094208;28;20241;-77
2023/06/23 08:51:42;;;;;;;5.57;1.58;;;;;;;29.22;77.82;99242.84;5106326;28;20247;-79
2023/06/23 08:54:09;;;;;;;4.30;1.50;;;;;;;29.30;78.32;99244.72;5093777;28;21035;-78
2023/06/23 08:56:35;;;;;;;5.75;2.03;;;;;;;29.50;77.91;99257.47;5096565;28;20717;-77
2023/06/23 08:59:02;;;;;;;2.35;1.33;;;;;;;29.49;75.01;99249.56;5089819;28;20188;-78
2023/06/23 09:01:29;;;;;;;4.18;1.75;;;;;;;29.45;75.62;99266.00;5107188;28;20245;-78
2023/06/23 09:03:56;;;;;;;4.78;1.70;;;;;;;29.42;74.53;99255.66;5096395;28;20230;-78
2023/06/23 09:06:23;;;;;;;3.95;1.60;;;;;;;30.00;73.00;99254.03;5108764;28;20253;-78
2023/06/23 09:08:49;;;;;;;7.43;1.98;;;;;;;30.19;73.59;99267.09;5095002;28;20755;-77
2023/06/23 09:11:16;;;;;;;1.95;1.40;;;;;;;30.52;72.43;99255.66;5109164;28;20212;-79
2023/06/23 09:13:44;;;;;;;3.90;1.45;;;;;;;30.78;71.28;99255.06;5096319;28;20194;-79
2023/06/23 09:16:12;;;;;;;3.20;1.40;;;;;;;30.94;69.76;99267.66;5114239;28;20275;-78
2023/06/23 09:18:40;;;;;;;5.43;1.48;;;;;;;30.93;69.90;99274.38;5106593;28;20723;-78
2023/06/23 09:21:08;;;;;;;2.33;1.55;;;;;;;31.25;69.44;99263.19;5111824;28;20666;-78
2023/06/23 09:23:35;;;;;;;2.42;1.30;;;;;;;30.78;69.38;99253.09;5113258;28;20200;-78
2023/06/23 09:26:04;;;;;;;4.03;1.50;;;;;;;30.75;68.67;99258.56;5113672;28;20272;-78
2023/06/23 09:28:35;;;;;;;3.92;1.60;;;;;;;31.09;69.13;99262.44;5111904;28;20226;-79
2023/06/23 09:31:08;;;;;;;2.45;1.30;;;;;;;30.84;67.28;99250.84;5114272;28;20215;-79
2023/06/23 09:33:35;;;;;;;1.55;1.40;;;;;;;30.96;67.20;99261.78;5114614;28;20184;-78
2023/06/23 09:36:05;;;;;;;1.33;1.17;;;;;;;31.17;66.55;99253.16;5110856;28;20217;-78
2023/06/23 09:38:35;;;;;;;2.13;1.50;;;;;;;30.96;67.39;99268.09;5112748;28;20180;-78
2023/06/23 09:41:13;;;;;;;2.08;1.30;;;;;;;31.27;66.96;99263.59;5102702;28;20192;-77
2023/06/23 09:43:42;;;;;;;1.63;1.40;;;;;;;31.59;66.96;99269.78;5104856;28;20202;-79
2023/06/23 09:46:13;;;;;;;2.72;1.40;;;;;;;31.64;67.19;99267.50;5098916;28;20188;-78
2023/06/23 09:48:41;;;;;;;2.47;1.30;;;;;;;32.20;67.33;99277.97;5103972;28;20278;-79
2023/06/23 09:51:07;;;;;;;2.55;1.38;;;;;;;32.10;65.93;99270.31;5097486;28;20694;-79
2023/06/23 09:53:36;;;;;;;2.33;1.60;;;;;;;32.03;66.25;99273.72;5104719;28;20207;-79
2023/06/23 09:56:04;;;;;;;1.63;1.30;;;;;;;31.92;66.14;99263.63;5094637;28;20196;-78
2023/06/23 09:58:39;;;;;;;2.67;1.27;;;;;;;32.24;66.61;99290.69;5084550;28;20192;-79
2023/06/23 10:01:09;;;;;;;2.38;1.13;;;;;;;31.67;65.93;99288.13;5112967;28;20701;-78
2023/06/23 10:03:48;;;;;;;1.42;1.00;;;;;;;31.99;65.87;99281.16;5096173;28;20244;-78
2023/06/23 10:06:27;;;;;;;2.45;1.05;;;;;;;32.35;65.04;99274.25;5098637;28;20659;-79
2023/06/23 10:08:55;;;;;;;2.88;0.88;;;;;;;31.37;63.07;99279.59;5100989;28;20183;-78
2023/06/23 10:11:40;;;;;;;4.35;0.80;;;;;;;30.94;63.91;99272.38;5103570;28;20207;-79
2023/06/23 10:14:11;;;;;;;1.02;0.70;;;;;;;30.77;64.34;99278.34;5089713;28;20229;-78
2023/06/23 10:16:45;;;;;;;3.50;0.60;;;;;;;30.51;63.77;99278.97;5105540;28;20188;-78
2023/06/23 10:19:13;;;;;;;3.40;0.60;;;;;;;30.56;63.93;99275.94;5112478;28;20641;-77
2023/06/23 10:21:40;;;;;;;1.60;0.70;;;;;;;30.59;66.08;99270.47;5113042;28;20272;-78
2023/06/23 10:24:09;;;;;;;0.95;0.60;;;;;;;30.02;66.29;99290.38;5106023;28;20554;-78
2023/06/23 10:26:37;;;;;;;1.55;0.90;;;;;;;30.75;66.25;99281.47;5112862;28;20658;-78
2023/06/23 10:29:06;;;;;;;1.70;0.77;;;;;;;31.03;64.71;99276.56;5112958;28;20188;-77
2023/06/23 10:31:34;;;;;;;1.00;0.90;;;;;;;30.96;65.71;99293.00;5112814;28;20208;-78
2023/06/23 10:34:05;;;;;;;1.50;0.93;;;;;;;31.23;63.48;99285.66;5086376;28;20188;-78
2023/06/23 10:36:31;;;;;;;1.23;0.85;;;;;;;31.18;65.12;99294.25;5087401;28;20188;-78
2023/06/23 10:39:03;;;;;;;2.25;1.17;;;;;;;30.77;64.44;99279.16;5073535;28;20715;-78
2023/06/23 10:41:30;;;;;;;1.65;0.80;;;;;;;30.26;65.79;99280.31;5092701;28;20600;-78
2023/06/23 10:43:57;;;;;;;4.10;0.93;;;;;;;29.82;65.89;99296.94;5100200;28;20188;-78
2023/06/23 10:46:24;;;;;;;2.88;0.95;;;;;;;29.22;66.04;99285.03;5079772;28;20279;-78
2023/06/23 10:48:51;;;;;;;2.38;0.80;;;;;;;29.08;67.02;99292.09;5099945;28;20595;-79
2023/06/23 10:51:19;;;;;;;1.80;0.70;;;;;;;28.29;67.52;99275.13;5093445;28;20678;-77
2023/06/23 10:54:05;;;;;;;1.33;0.50;;;;;;;28.87;67.89;99270.25;5085332;28;20203;-78
2023/06/23 10:56:32;;;;;;;3.72;0.70;;;;;;;28.98;67.62;99257.56;5106646;28;20246;-77
2023/06/23 10:58:59;;;;;;;0.75;0.40;;;;;;;28.50;67.68;99244.69;5112484;28;20673;-78
2023/06/23 11:01:26;;;;;;;2.88;0.60;;;;;;;28.94;68.91;99261.34;5111937;28;20622;-78
2023/06/23 11:03:57;;;;;;;1.65;0.70;;;;;;;29.44;68.76;99266.38;5111995;28;20246;-78
2023/06/23 11:06:29;;;;;;;1.73;0.68;;;;;;;30.13;68.76;99261.09;5108326;28;20192;-78
2023/06/23 11:08:57;;;;;;;3.15;0.68;;;;;;;30.47;67.81;99259.50;5092599;28;20224;-78
2023/06/23 11:11:31;;;;;;;4.18;0.50;;;;;;;30.38;67.66;99267.19;5091918;28;20211;-78
2023/06/23 11:13:58;;;;;;;4.25;0.70;;;;;;;30.34;68.41;99249.72;5111697;28;20274;-76
2023/06/23 11:16:38;;;;;;;2.53;0.70;;;;;;;30.27;67.70;99243.22;5107551;28;20191;-76
2023/06/23 11:19:05;;;;;;;2.40;0.60;;;;;;;29.89;67.71;99252.97;5110387;28;20196;-76
2023/06/23 11:21:38;;;;;;;3.03;0.50;;;;;;;29.98;67.39;99250.84;5112571;28;20598;-77
2023/06/23 11:24:11;;;;;;;7.75;0.75;;;;;;;29.81;67.34;99242.09;5111973;28;20271;-77
2023/06/23 11:26:48;;;;;;;2.67;0.50;;;;;;;29.45;67.61;99238.41;5112544;28;20252;-75
2023/06/23 11:29:18;;;;;;;3.42;0.50;;;;;;;29.53;67.54;99258.72;5110387;28;20191;-76
2023/06/23 11:32:05;;;;;;;5.57;0.80;;;;;;;28.96;67.32;99246.09;5091575;28;20208;-76
2023/06/23 11:34:55;;;;;;;3.85;0.50;;;;;;;28.54;69.74;99253.88;5091837;28;20192;-76